Contact Us:
Email: info@sawbill.com
Phone: (218)663-7150
Fax: (218)663-7980
Mail: 4620 Sawbill Trail
Box 2129
Tofte, MN 55615


Powered by
Movable Type 3.15
 
Sawbill Weather History Archives: April 2014
Current Sawbill Weather History | « March 2014 | May 2014 »


Date

High
Temperature

Low
Temperature

Barometric
Pressure

Relative
Humidity 7AM

9 AM
Temperature

Moisture

Snow

4/30/14 40 35 29.88 98% 35 .39" Trace
4/29/14 42 33 29.98 94% 35 Trace Trace
4/28/14 43 33 30.06 46% 33 0
4/27/14 39 30 30.10 42% 37 0
4/26/14 41 28 30.12 47% 33 0
4/25/14 37 30 30.08 78% 31 .1" 1"
4/24/14 38 31 29.84 84% 33 .69" 7"
4/23/14 48 34 30.06 77% 36 0
4/22/14 45 25 30.14 65% 34 0
4/21/14 54 32 30.06 65% 33 Trace Trace
4/20/14 54 32 30.00 65% 39 Trace
4/19/14 36 28 30.10 92% 34 .44" 3
4/18/14 38 24 30.24 76% 29 Trace Trace
4/17/14 33 24 30.28 77% 24 .26" 2"
4/16/14 30 11 30.16 77% 27 .25" 2.5"
4/15/14 26 8 30.14 46% 11 0
4/14/14 25 13 30.04 59% 13 Trace Trace
4/13/14 38 16 30.02 48% 16 0
4/12/14 42 28 29.98 91% 33 Trace Trace
4/11/14 47 28 29.98 66% 34 0
4/10/14 45 26 29.98 68% 30 0
4/9/14 50 31 29.74 54% 37 0
4/8/14 43 30 29.80 55% 31 0
4/7/14 44 31 29.98 79% 31 .22"
4/6/14 45 28 29.92 83% 29 0
4/5/14 43 9 30.01 74% 35 0
4/4/14 34 8 30.03 79% 9 Trace Trace
4/3/14 35 24 30.00 79% 24 .37" 3"
4/2/14 34 12 30.16 64% 24 0
4/1/14 17 10 30.12 71% 12 .16" 2"
 


Home I Trip Planning I Rentals and Outfitting I Reservations I Campgrounds I Sawbill Store I Sawbill News I Contact

© 1997 - 2017, Sawbill Canoe Outfitters, Inc. I Privacy Policy